Tiempo atmosférico en la estación meteorológica de Trujillo, Cáceres (503 m.)



Fecha
DESCASC
Temp. máxima en grados centígrados (hora)
DESCASC
Temp. mínima en grados centígrados (hora)
DESCASC
Temp. media en grados centígrados
DESCASC
Racha de viento máxima en m/sg (hora)
DESCASC
Velocidad máxima media en intervalos de 10 minutos(hora)
DESCASC
Precipitaciones diarias en mm
DESCASC
Precipitaciones de 00:00 a 06:00 en mm
DESCASC
Precipitaciones de 06:00 a 12:00 en mm
DESCASC
Precipitaciones de 12:00 a 18:00 en mm
DESCASC
Precipitaciones de 18:00 a 24:00 en mm
DESCASC
25-04-2019 14.4 (17:40) 7.8 (06:30) 11.1 13.33 (20:20) 9.17 (20:10) 2.9 0.3 0 2.3 0.3
24-04-2019 14.8 (17:40) 5.8 (05:40) 10.3 14.44 (17:50) 8.06 (17:50) 32.1 0.4 6 22.4 3.3
23-04-2019 14.5 (00:00) 6.5 (23:50) 10.5 12.78 (18:20) 9.17 (17:30) 6.7 3.9 1.5 1.2 0.1
22-04-2019 20.2 (16:20) 7 (00:00) 13.6 10.56 (20:00) 6.39 (19:10) 0 0 0 0 0
21-04-2019 19.2 (16:00) 8 (00:00) 13.6 9.44 (11:40) 5 (13:50) 0 0 0 0 0
20-04-2019 21.3 (17:50) 8.8 (00:00) 15 12.22 (11:30) 6.67 (11:20) 3 2.2 0.8 0 0
19-04-2019 16.5 (16:40) 7.4 (00:00) 12 11.67 (18:00) 6.39 (18:10) 1 0 0.1 0.8 0.1
18-04-2019 15.5 (17:20) 8.7 (00:00) 12.1 7.78 (14:40) 4.72 (13:30) 20.7 3 0.1 10 7.6
17-04-2019 20.1 (15:20) 10.7 (00:00) 15.4 10.83 (17:40) 6.39 (17:40) 0.7 0 0 0 0.7
16-04-2019 22.5 (18:40) 5.9 (00:00) 14.2 10.28 (16:40) 5 (16:10) 0 0 0 0 0
15-04-2019 21.1 (14:30) 11.7 (00:00) 16.4 12.78 (15:30) 8.89 (16:30) 0 0 0 0 0
14-04-2019 23.2 (18:30) 12.4 (00:00) 17.8 6.39 (17:00) 3.06 (01:20) 0 0 0 0 0
13-04-2019 23.1 (18:20) 8.5 (00:00) 15.8 8.61 (20:20) 5.28 (20:20) 0 0 0 0 0
12-04-2019 20.1 (19:00) 4.5 (00:00) 12.3 6.67 (14:20) 3.06 (17:30) 0 0 0 0 0
11-04-2019 18.5 (18:50) 3.2 (00:00) 10.9 7.78 (16:10) 4.17 (14:40) 0 0 0 0 0
10-04-2019 16.9 (18:50) 5.3 (00:00) 11.1 12.5 (16:10) 8.33 (16:10) 0 0 0 0 0
09-04-2019 15 (17:10) 6.7 (00:00) 10.8 13.06 (18:40) 8.61 (18:40) 1 0 0.1 0.9 0
08-04-2019 16.6 (16:10) 8.3 (00:00) 12.5 11.94 (19:10) 7.5 (19:10) 8.1 3 4.9 0 0.2
07-04-2019 12.7 (15:40) 6.4 (00:00) 9.5 8.33 (14:30) 5 (13:30) 3.2 1 0 0.2 2
06-04-2019 10.2 (19:50) 4.9 (00:00) 7.5 15 (16:00) 8.89 (16:00) 2.9 0 0.9 2 0
05-04-2019 11.9 (16:40) 3.9 (00:00) 7.9 14.17 (10:40) 7.78 (10:40) 7.6 3.2 4.2 0 0.2
04-04-2019 16.6 (18:20) 1.7 (00:00) 9.2 9.17 (00:40) 5.83 (23:00) 0.3 0 0 0 0.3
03-04-2019 16.5 (16:20) 5.6 (00:00) 11 11.94 (16:20) 7.22 (19:30) 0 0 0 0 0
02-04-2019 20.4 (17:40) 7 (00:00) 13.7 9.17 (16:50) 5 (19:40) 0 0 0 0 0
01-04-2019 19.1 (18:30) 8.8 (00:00) 14 7.78 (19:10) 5.28 (19:10) 4.3 0 0 4.3 0
31-03-2019 19.3 (14:50) 8.8 (00:00) 14 7.22 (15:40) 5 (15:40) 0.1 0 0.1 0 0
30-03-2019 21.1 (17:40) 5.9 (00:00) 13.5 8.89 (14:00) 4.17 (23:50) 0 0 0 0 0
29-03-2019 20.1 (16:10) 6.7 (00:00) 13.4 8.33 (03:10) 5 (03:10) 0 0 0 0 0
28-03-2019 21.3 (16:50) 6.8 (00:00) 14 8.89 (14:30) 5.28 (12:40) 0 0 0 0 0
27-03-2019 20.2 (17:30) 6.1 (00:00) 13.2 12.5 (12:20) 5.28 (09:20) 0 0 0 0 0

Gráficas

Temp. máximas Temp. mínimas Temp. medias Precipitaciones Rachas de viento máximas Velocidades máximas media en intervalos de 10 minutos

Datos horarios

Fecha y hora oficial Temperatura (ºC) Velocidad del viento (km/h) Dirección del viento Racha (km/h) Dirección de racha Precipitación (mm) Presión (hPa) Tendencia (hPa) Humedad (%)
2019-04-25 23:00:00 9 13 Sudoeste 22 Sudoeste 0 -- -- 60
2019-04-25 22:00:00 10 14 Sudoeste 34 Sudoeste 0 -- -- 53
2019-04-25 21:00:00 10.8 19 Sudoeste 48 Sudoeste 0 -- -- 49
2019-04-25 20:00:00 12.9 31 Oeste 46 Sudoeste 0 -- -- 43
2019-04-25 19:00:00 13.8 27 Sudoeste 46 Sudoeste 0.3 -- -- 47
2019-04-25 18:00:00 13.5 27 Sudoeste 44 Sudoeste 0 -- -- 44
2019-04-25 17:00:00 13.5 20 Sudoeste 41 Sudoeste 0.1 -- -- 52
2019-04-25 16:00:00 12.7 24 Sudoeste 38 Sudoeste 0 -- -- 53
2019-04-25 15:00:00 8.8 21 Sudoeste 41 Sudoeste 2.1 -- -- 78
2019-04-25 14:00:00 10.4 23 Oeste 41 Sudoeste 0 -- -- 55
2019-04-25 13:00:00 11.9 22 Sudoeste 40 Sudoeste 0.1 -- -- 55
2019-04-25 12:00:00 11.2 20 Sudoeste 36 Sudoeste 0 -- -- 56
2019-04-25 11:00:00 10.3 22 Sudoeste 36 Sudoeste 0 -- -- 65
2019-04-25 10:00:00 9.4 17 Sudoeste 35 Sudoeste 0 -- -- 72
2019-04-25 09:00:00 8.6 14 Sudoeste 30 Sudoeste 0 -- -- 78
2019-04-25 08:00:00 8 13 Sur 24 Sudoeste 0 -- -- 83
2019-04-25 07:00:00 8 7 Sur 18 Sur 0 -- -- 83
2019-04-25 06:00:00 8.2 10 Sudoeste 26 Sudoeste 0 -- -- 81
2019-04-25 05:00:00 8.5 15 Sudoeste 37 Sudoeste 0.2 -- -- 83
2019-04-25 04:00:00 8.8 8 Sur 21 Sur 0 -- -- 85
2019-04-25 03:00:00 8.8 10 Sur 24 Sur 0 -- -- 85
2019-04-25 02:00:00 9.2 10 Sur 27 Sudoeste 0 -- -- 85
2019-04-25 01:00:00 10.1 18 Sudoeste 40 Sudoeste 0.1 -- -- 86
2019-04-25 00:00:00 10.6 19 Sudoeste 50 Sur 2.7 -- -- 86
2019-04-24 23:00:00 11.8 16 Sur 36 Sur 0 -- -- 82
2019-04-24 22:00:00 11.9 13 Sur 37 Sur 0.1 -- -- 78
2019-04-24 21:00:00 11.9 14 Sur 42 Sudoeste 0.2 -- -- 78
2019-04-24 20:00:00 13.2 18 Sur 39 Sudoeste 0 -- -- 74
2019-04-24 19:00:00 13.2 18 Sudoeste 43 Sudoeste 0.3 -- -- 78
2019-04-24 18:00:00 12 28 Sudoeste 52 Sudoeste 0.7 -- -- 78
2019-04-24 17:00:00 12.7 16 Sudoeste 47 Sur 3.3 -- -- 89
2019-04-24 16:00:00 11.9 25 Sudoeste 42 Sudoeste 9.7 -- -- 89
2019-04-24 15:00:00 12.1 14 Sur 49 Sudoeste 7.3 -- -- 89
2019-04-24 14:00:00 12.3 15 Sur 37 Sudeste 1.3 -- -- 88
2019-04-24 13:00:00 11.6 15 Sur 43 Sur 0.1 -- -- 88
2019-04-24 12:00:00 10.6 16 Sur 41 Sudeste 1.1 -- -- 89
2019-04-24 11:00:00 9.5 23 Sur 48 Sur 0.1 -- -- 89
2019-04-24 10:00:00 8 24 Sudeste 87 Sudeste 0.6 -- -- 89
2019-04-24 09:00:00 7.2 26 Sudeste 49 Sudeste 0.7 -- -- 89
2019-04-24 08:00:00 6.6 21 Sudeste 40 Sudeste 1.2 -- -- 89
2019-04-24 07:00:00 6.2 21 Sudeste 38 Sudeste 2.3 -- -- 89
2019-04-24 06:00:00 6.1 18 Sudeste 35 Sudeste 0.4 -- -- 88
2019-04-24 05:00:00 6.3 16 Sudeste 27 Sudeste 0 -- -- 86
2019-04-24 04:00:00 6 15 Sudeste 26 Sur 0 -- -- 83
2019-04-24 03:00:00 6 12 Sudeste 26 Sudeste 0 -- -- 77
2019-04-24 02:00:00 6.4 11 Sur 22 Sur 0 -- -- 74
2019-04-24 01:00:00 5.9 6 Sur 19 Sur 0 -- -- 76
2019-04-24 00:00:00 6.5 10 Sur 23 Sur 0 -- -- 72
2019-04-23 23:00:00 6.8 10 Sur 23 Sudoeste 0 -- -- 68
2019-04-23 22:00:00 7.5 13 Sudoeste 29 Sudoeste 0 -- -- 61
2019-04-23 21:00:00 8.3 19 Sudoeste 35 Sudoeste 0 -- -- 55
2019-04-23 20:00:00 10.7 21 Sudoeste 44 Sudoeste 0 -- -- 48
2019-04-23 19:00:00 9.3 23 Sudoeste 46 Sudoeste 0.1 -- -- 58
2019-04-23 18:00:00 11.6 23 Sudoeste 44 Sudoeste 0 -- -- 46
2019-04-23 17:00:00 10.8 18 Sudoeste 29 Sur 0 -- -- 58
2019-04-23 16:00:00 9 14 Sudoeste 29 Sudoeste 0.1 -- -- 74
2019-04-23 15:00:00 6.9 26 Sudoeste 44 Sudoeste 1 -- -- 78
2019-04-23 14:00:00 8.8 22 Sudoeste 40 Sudoeste 0.1 -- -- 65
2019-04-23 13:00:00 10.3 19 Sudoeste 40 Sudoeste 0 -- -- 66
2019-04-23 12:00:00 8.9 18 Sur 40 Sudoeste 0 -- -- 62
2019-04-23 11:00:00 9.1 19 Sudoeste 34 Sudoeste 0 -- -- 65
2019-04-23 10:00:00 7.4 21 Sudoeste 37 Sudoeste 0 -- -- 82
2019-04-23 09:00:00 7.1 9 Sudoeste 23 Sudoeste 0 -- -- 86
2019-04-23 08:00:00 6.8 17 Sudoeste 28 Sudoeste 0 -- -- 88
2019-04-23 07:00:00 7.1 14 Sudoeste 31 Oeste 1.5 -- -- 88
2019-04-23 06:00:00 8 11 Sudoeste 24 Sudoeste 1.2 -- -- 89
2019-04-23 05:00:00 8.2 13 Sudoeste 28 Oeste 2.1 -- -- 89
2019-04-23 04:00:00 8.7 19 Oeste 32 Sudoeste 0.6 -- -- 83
2019-04-23 03:00:00 11.7 13 Sudoeste 32 Sudoeste 0 -- -- 73
2019-04-23 02:00:00 12.2 15 Sur 33 Sur 0 -- -- 70
2019-04-23 01:00:00 13.4 12 Sudoeste 23 Sur 0 -- -- 61
2019-04-23 00:00:00 14.5 13 Sudoeste 22 Sudoeste 0 -- -- 54
2019-04-22 23:00:00 14.9 5 Sur 15 Sur 0 -- -- 47
2019-04-22 22:00:00 15.6 6 Sur 19 Sudoeste 0 -- -- 43
2019-04-22 21:00:00 16.6 14 Sudoeste 34 Sudoeste 0 -- -- 40
2019-04-22 20:00:00 17.7 23 Sudoeste 38 Sudoeste 0 -- -- 37
2019-04-22 19:00:00 19 23 Sudoeste 36 Sudoeste 0 -- -- 36
2019-04-22 18:00:00 19.4 10 Sudoeste 26 Sudoeste 0 -- -- 33
2019-04-22 17:00:00 19.3 14 Sudoeste 27 Sudoeste 0 -- -- 34
2019-04-22 16:00:00 19.5 5 Sur 19 Sudoeste 0 -- -- 36
2019-04-22 15:00:00 18.8 3 Oeste 17 Sudoeste 0 -- -- 38
2019-04-22 14:00:00 18.5 3 Sudoeste 19 Sudeste 0 -- -- 39
2019-04-22 13:00:00 17.5 6 Sudoeste 15 Sur 0 -- -- 42
2019-04-22 12:00:00 16.2 4 Oeste 13 Sudeste 0 -- -- 45
2019-04-22 11:00:00 14.6 5 Sur 15 Sudeste 0 -- -- 52
2019-04-22 10:00:00 13.6 5 Sur 12 Sudeste 0 -- -- 56
2019-04-22 09:00:00 11.1 5 Sudeste 9 Sudeste 0 -- -- 70
2019-04-22 08:00:00 8.5 4 Sudeste 9 Sudeste 0 -- -- 75
2019-04-22 07:00:00 8 5 Sudeste 7 Sudeste 0 -- -- 77
2019-04-22 06:00:00 7.2 4 Sudeste 6 Sudeste 0 -- -- 77
2019-04-22 05:00:00 8 0 Calma 6 Nordeste 0 -- -- 75
2019-04-22 04:00:00 8.8 0 Calma 6 Nordeste 0 -- -- 73
2019-04-22 03:00:00 10.4 4 Nordeste 7 Norte 0 -- -- 68
2019-04-22 02:00:00 11.2 4 Nordeste 10 Nordeste 0 -- -- 64
2019-04-22 01:00:00 11.7 6 Este 12 Este 0 -- -- 62
2019-04-22 00:00:00 12.2 4 Nordeste 8 Nordeste 0 -- -- 57
2019-04-21 23:00:00 12.7 4 Norte 7 Norte 0 -- -- 55
2019-04-21 22:00:00 13 4 Nordeste 10 Nordeste 0 -- -- 51
2019-04-21 21:00:00 13.7 3 Nordeste 13 Norte 0 -- -- 48
2019-04-21 20:00:00 14.7 6 Nordeste 18 Nordeste 0 -- -- 44
2019-04-21 19:00:00 15.5 9 Nordeste 21 Norte 0 -- -- 40
2019-04-21 18:00:00 16.7 11 Nordeste 24 Nordeste 0 -- -- 38
2019-04-21 17:00:00 17.3 13 Norte 29 Norte 0 -- -- 36
2019-04-21 16:00:00 18.3 14 Norte 33 Norte 0 -- -- 34
2019-04-21 15:00:00 16.8 14 Norte 29 Norte 0 -- -- 37
2019-04-21 14:00:00 16.6 15 Nordeste 33 Nordeste 0 -- -- 38
2019-04-21 13:00:00 16.8 14 Norte 31 Norte 0 -- -- 39
2019-04-21 12:00:00 16 12 Norte 34 Nordeste 0 -- -- 42
2019-04-21 11:00:00 14.6 12 Nordeste 26 Nordeste 0 -- -- 45
2019-04-21 10:00:00 13.5 7 Nordeste 18 Norte 0 -- -- 53
2019-04-21 09:00:00 9.9 6 Este 12 Nordeste 0 -- -- 69
2019-04-21 08:00:00 8.2 8 Nordeste 21 Nordeste 0 -- -- 72
2019-04-21 07:00:00 8.4 5 Norte 15 Nordeste 0 -- -- 75
2019-04-21 06:00:00 8.5 5 Norte 21 Norte 0 -- -- 74
2019-04-21 05:00:00 8.4 5 Norte 15 Nordeste 0 -- -- 74
2019-04-21 04:00:00 8.7 6 Nordeste 17 Norte 0 -- -- 74
2019-04-21 03:00:00 9.8 9 Norte 21 Norte 0 -- -- 72
2019-04-21 02:00:00 9.6 3 Norte 9 Nordeste 0 -- -- 67
2019-04-21 01:00:00 11.7 6 Nordeste 20 Este 0 -- -- 56
2019-04-21 00:00:00 12.9 15 Este 23 Este 0 -- -- 54
2019-04-20 23:00:00 12.6 10 Sudeste 21 Sudeste 0 -- -- 55
2019-04-20 22:00:00 13.4 13 Sudeste 22 Sudeste 0 -- -- 52
2019-04-20 21:00:00 15.1 16 Sudeste 31 Sudeste 0 -- -- 48
2019-04-20 20:00:00 17.3 14 Sudeste 25 Nordeste 0 -- -- 42
2019-04-20 19:00:00 20.3 16 Este 32 Nordeste 0 -- -- 31
2019-04-20 18:00:00 20.8 15 Nordeste 35 Nordeste 0 -- -- 30
2019-04-20 17:00:00 20.7 17 Nordeste 38 Norte 0 -- -- 32
2019-04-20 16:00:00 20.6 15 Nordeste 35 Nordeste 0 -- -- 32
2019-04-20 15:00:00 19.3 15 Nordeste 44 Nordeste 0 -- -- 34
2019-04-20 14:00:00 17.5 15 Nordeste 31 Nordeste 0 -- -- 37
2019-04-20 13:00:00 17 18 Nordeste 40 Nordeste 0 -- -- 38
2019-04-20 12:00:00 16.7 22 Nordeste 44 Norte 0 -- -- 40
2019-04-20 11:00:00 15.3 22 Norte 40 Norte 0 -- -- 46
2019-04-20 10:00:00 12.4 7 Noroeste 27 Nordeste 0 -- -- 66
2019-04-20 09:00:00 10.8 8 Noroeste 20 Noroeste 0 -- -- 77
2019-04-20 08:00:00 10.9 5 Norte 17 Nordeste 0.5 -- -- 78
2019-04-20 07:00:00 10.7 5 Este 17 Nordeste 0.3 -- -- 85
2019-04-20 06:00:00 10.4 6 Nordeste 16 Nordeste 2.2 -- -- 85
2019-04-20 05:00:00 9.8 6 Noroeste 10 Noroeste 0 -- -- 83
2019-04-20 04:00:00 9.2 3 Norte 9 Nordeste 0 -- -- 84
2019-04-20 03:00:00 9 4 Nordeste 9 Nordeste 0 -- -- 83
2019-04-20 02:00:00 9.5 4 Nordeste 14 Nordeste 0 -- -- 78
2019-04-20 01:00:00 10.6 3 Este 12 Norte 0 -- -- 72
2019-04-20 00:00:00 11.3 4 Noroeste 10 Sudeste 0 -- -- 72
2019-04-19 23:00:00 11.5 2 Este 11 Norte 0 -- -- 70
2019-04-19 22:00:00 11.6 4 Nordeste 13 Nordeste 0.1 -- -- 64
2019-04-19 21:00:00 12.6 8 Nordeste 20 Nordeste 0 -- -- 57
2019-04-19 20:00:00 13.2 9 Nordeste 25 Nordeste 0 -- -- 57
2019-04-19 19:00:00 13.4 15 Nordeste 39 Nordeste 0 -- -- 57
2019-04-19 18:00:00 14.5 23 Nordeste 42 Nordeste 0 -- -- 51
2019-04-19 17:00:00 15.3 18 Nordeste 40 Nordeste 0 -- -- 50
2019-04-19 16:00:00 14.9 8 Nordeste 14 Nordeste 0.1 -- -- 57
2019-04-19 15:00:00 13.6 5 Nordeste 16 Sudeste 0.7 -- -- 68
2019-04-19 14:00:00 15.4 2 Sur 14 Sudeste 0 -- -- 54
2019-04-19 13:00:00 14.7 8 Sudeste 14 Sudeste 0 -- -- 56
2019-04-19 12:00:00 12.9 5 Sudeste 13 Sudeste 0 -- -- 70
2019-04-19 11:00:00 11 7 Sudeste 17 Sudeste 0 -- -- 78
2019-04-19 10:00:00 10.2 8 Sudeste 15 Sudeste 0 -- -- 89
2019-04-19 09:00:00 9 5 Sur 15 Sur 0.1 -- -- 89
2019-04-19 08:00:00 7.8 0 Calma 6 Este 0 -- -- 89
2019-04-19 07:00:00 7.7 3 Sudeste 6 Sudeste 0 -- -- 89
2019-04-19 06:00:00 8 2 Sudeste 8 Sudeste 0 -- -- 89
2019-04-19 05:00:00 8.1 2 Sudeste 6 Sudeste 0 -- -- 89
2019-04-19 04:00:00 8.4 4 Sur 8 Sudeste 0 -- -- 88
2019-04-19 03:00:00 8.9 4 Sudeste 6 Sudeste 0 -- -- 86
2019-04-19 02:00:00 9.5 0 Calma 7 Sudoeste 0 -- -- 85
2019-04-19 01:00:00 10.2 5 Sudoeste 9 Sudoeste 0 -- -- 83
2019-04-19 00:00:00 10.5 6 Sudoeste 15 Sudoeste 0 -- -- 83
2019-04-18 23:00:00 10.3 0 Calma 6 Norte 0 -- -- 84
2019-04-18 22:00:00 10.6 0 Calma 3 Sudoeste 0 -- -- 83
2019-04-18 21:00:00 10.8 0 Calma 14 Nordeste 0 -- -- 78
2019-04-18 20:00:00 10.7 9 Nordeste 20 Nordeste 7.6 -- -- 77
2019-04-18 19:00:00 12.4 13 Nordeste 28 Nordeste 0 -- -- 54
2019-04-18 18:00:00 15.1 4 Sudoeste 14 Sur 0 -- -- 48
2019-04-18 17:00:00 14.7 3 Sudoeste 12 Este 0.1 -- -- 53
2019-04-18 16:00:00 12.3 2 Sudoeste 15 Este 0.3 -- -- 69
2019-04-18 15:00:00 10.5 8 Este 28 Este 0.8 -- -- 78
2019-04-18 14:00:00 10.5 7 Sur 25 Oeste 8.8 -- -- 72
2019-04-18 13:00:00 14.4 2 Noroeste 12 Oeste 0 -- -- 55
2019-04-18 12:00:00 13.6 3 Noroeste 9 Oeste 0 -- -- 61
2019-04-18 11:00:00 12.1 0 Calma 5 Este 0 -- -- 76
2019-04-18 10:00:00 11 0 Calma 7 Nordeste 0 -- -- 86
2019-04-18 09:00:00 9 0 Calma 6 Nordeste 0.1 -- -- 88
2019-04-18 08:00:00 8.8 4 Nordeste 8 Este 0 -- -- 88
2019-04-18 07:00:00 9 0 Calma 4 Sur 0 -- -- 88
2019-04-18 06:00:00 9.1 2 Este 11 Sudeste 0 -- -- 88
2019-04-18 05:00:00 9.6 7 Este 14 Sudeste 0 -- -- 88
2019-04-18 04:00:00 10.1 7 Sudeste 14 Sudeste 0 -- -- 88
2019-04-18 03:00:00 10.6 7 Sur 21 Sur 3 -- -- 86
2019-04-18 02:00:00 10.8 8 Sudeste 17 Sudeste 0 -- -- 85
2019-04-18 01:00:00 10.8 10 Sudeste 19 Sudeste 0 -- -- 85
2019-04-18 00:00:00 10.7 12 Sudeste 27 Sudeste 0.3 -- -- 85
2019-04-17 23:00:00 10.9 16 Sudeste 30 Sudeste 0.4 -- -- 81
2019-04-17 22:00:00 12.1 12 Sudeste 26 Sudeste 0 -- -- 72
2019-04-17 21:00:00 12.7 9 Sudeste 18 Sur 0 -- -- 65
2019-04-17 20:00:00 13 6 Sur 30 Sudoeste 0 -- -- 67
2019-04-17 19:00:00 14.3 21 Sudoeste 36 Sudoeste 0 -- -- 66
2019-04-17 18:00:00 18.6 17 Sudeste 39 Sudeste 0 -- -- 42
2019-04-17 17:00:00 19.3 13 Sudeste 26 Sudeste 0 -- -- 37
2019-04-17 16:00:00 -- -- -- -- -- -- -- -- --
2019-04-17 15:00:00 18.8 12 Sudeste 24 Sur 0 -- -- 36
2019-04-17 14:00:00 17.7 11 Sudeste 25 Sudeste 0 -- -- 38
2019-04-17 13:00:00 17.2 10 Sudeste 25 Sudeste 0 -- -- 39
2019-04-17 12:00:00 17.2 15 Sudeste 30 Sudeste 0 -- -- 39
2019-04-17 11:00:00 16.6 19 Sudeste 33 Sudeste 0 -- -- 40
2019-04-17 10:00:00 14.3 7 Este 16 Este 0 -- -- 49
2019-04-17 09:00:00 12.3 4 Nordeste 10 Nordeste 0 -- -- 52
2019-04-17 08:00:00 12.2 6 Este 13 Sudeste 0 -- -- 51
2019-04-17 07:00:00 12.5 10 Sudeste 20 Este 0 -- -- 50
2019-04-17 06:00:00 13.2 8 Sudeste 21 Sudeste 0 -- -- 51
2019-04-17 05:00:00 14.2 12 Sudeste 21 Este 0 -- -- 47
2019-04-17 04:00:00 14.3 6 Sudeste 22 Sudeste 0 -- -- 42
2019-04-17 03:00:00 15.4 12 Sudeste 26 Sudeste 0 -- -- 39
2019-04-17 02:00:00 16.2 14 Sudeste 23 Sudeste 0 -- -- 37
2019-04-17 01:00:00 15.5 15 Sudeste 19 Sudeste 0 -- -- 33
2019-04-17 00:00:00 16.8 9 Sudeste 19 Sudeste 0 -- -- 32
2019-04-16 23:00:00 17.8 9 Sudeste 19 Sudeste 0 -- -- 32
2019-04-16 22:00:00 17.9 8 Este 13 Este 0 -- -- 32
2019-04-16 21:00:00 18.7 7 Este 17 Este 0 -- -- 31
2019-04-16 20:00:00 20.8 12 Este 28 Este 0 -- -- 26
2019-04-16 19:00:00 21.9 13 Sudeste 27 Este 0 -- -- 24
2019-04-16 18:00:00 21.3 10 Este 30 Sudeste 0 -- -- 25
2019-04-16 17:00:00 21 15 Sudeste 37 Este 0 -- -- 28
2019-04-16 16:00:00 20.7 10 Este 26 Sur 0 -- -- 29
2019-04-16 15:00:00 20 13 Sudeste 22 Sudeste 0 -- -- 31
2019-04-16 14:00:00 18.9 10 Sudeste 23 Este 0 -- -- 35
2019-04-16 13:00:00 17.5 13 Sudeste 27 Sur 0 -- -- 39
2019-04-16 12:00:00 16.8 10 Este 21 Este 0 -- -- 42
2019-04-16 11:00:00 15.1 8 Sudeste 15 Sudeste 0 -- -- 48
2019-04-16 10:00:00 14 6 Sudeste 10 Sudeste 0 -- -- 55
2019-04-16 09:00:00 10.2 2 Sudeste 5 Sudeste 0 -- -- 77
2019-04-16 08:00:00 5.9 0 Calma 4 Sudeste 0 -- -- 83
2019-04-16 07:00:00 6.2 0 Calma 6 Este 0 -- -- 81
2019-04-16 06:00:00 7.1 0 Calma 6 Sudeste 0 -- -- 78
2019-04-16 05:00:00 8.1 0 Calma 8 Sudeste 0 -- -- 75
2019-04-16 04:00:00 9.3 5 Sudeste 8 Sudeste 0 -- -- 71
2019-04-16 03:00:00 9.6 2 Sur 9 Sudoeste 0 -- -- 69
2019-04-16 02:00:00 10.6 6 Sudoeste 12 Sudoeste 0 -- -- 65
2019-04-16 01:00:00 10.9 3 Sur 10 Sudoeste 0 -- -- 61
2019-04-16 00:00:00 11.9 7 Sudoeste 17 Sudoeste 0 -- -- 58
2019-04-15 23:00:00 12.4 10 Sudoeste 17 Sudoeste 0 -- -- 57
2019-04-15 22:00:00 13.5 13 Sudoeste 17 Sudoeste 0 -- -- 57
2019-04-15 21:00:00 15.1 9 Sudoeste 23 Sudoeste 0 -- -- 55
2019-04-15 20:00:00 15.6 10 Sudoeste 20 Oeste 0 -- -- 53
2019-04-15 19:00:00 15.5 10 Oeste 28 Sudoeste 0 -- -- 59
2019-04-15 18:00:00 14.2 23 Oeste 39 Oeste 0 -- -- 61
2019-04-15 17:00:00 15.5 28 Oeste 45 Sudoeste 0 -- -- 54
2019-04-15 16:00:00 21 18 Sudoeste 46 Sudoeste 0 -- -- 31
2019-04-15 15:00:00 20.5 18 Sudoeste 35 Sudoeste 0 -- -- 37
2019-04-15 14:00:00 19.8 16 Sudoeste 28 Sudoeste 0 -- -- 44
2019-04-15 13:00:00 19.7 13 Sudoeste 30 Sudoeste 0 -- -- 52
2019-04-15 12:00:00 18.9 9 Sudoeste 24 Sudeste 0 -- -- 58
2019-04-15 11:00:00 17.7 9 Sur 36 Sudeste 0 -- -- 59
2019-04-15 10:00:00 17.2 12 Sudeste 23 Sudeste 0 -- -- 60
2019-04-15 09:00:00 16.1 10 Sudeste 19 Sudeste 0 -- -- 62
2019-04-15 08:00:00 15.5 5 Sudeste 16 Sudeste 0 -- -- 62
2019-04-15 07:00:00 15.8 11 Sudeste 19 Sudeste 0 -- -- 61
2019-04-15 06:00:00 15 9 Sudeste 18 Este 0 -- -- 62
2019-04-15 05:00:00 15.5 9 Este 12 Este 0 -- -- 61
2019-04-15 04:00:00 15.9 8 Este 17 Este 0 -- -- 61
2019-04-15 03:00:00 16.8 10 Sudeste 16 Sudeste 0 -- -- 58
2019-04-15 02:00:00 16.8 6 Sudeste 14 Sudeste 0 -- -- 60
2019-04-15 01:00:00 16.7 5 Sudeste 9 Sudeste 0 -- -- 60
2019-04-15 00:00:00 16.9 6 Este 11 Este 0 -- -- 60
2019-04-14 23:00:00 17.1 8 Este 13 Este 0 -- -- 59
2019-04-14 22:00:00 18.2 6 Sudeste 10 Sudeste 0 -- -- 53
2019-04-14 21:00:00 20 3 Sur 9 Sur 0 -- -- 43
2019-04-14 20:00:00 20.8 4 Sudoeste 13 Oeste 0 -- -- 41
2019-04-14 19:00:00 21.4 8 Sudoeste 16 Sudoeste 0 -- -- 40
2019-04-14 18:00:00 22.4 5 Sudoeste 19 Sur 0 -- -- 40
2019-04-14 17:00:00 21.6 7 Sudoeste 23 Sudoeste 0 -- -- 40
2019-04-14 16:00:00 21.6 5 Sudoeste 16 Sudoeste 0 -- -- 41
2019-04-14 15:00:00 21.3 6 Sudoeste 21 Sur 0 -- -- 44
2019-04-14 14:00:00 19.5 6 Sur 20 Sur 0 -- -- 48
2019-04-14 13:00:00 18 3 Sur 12 Sudeste 0 -- -- 55
2019-04-14 12:00:00 16.8 4 Sudoeste 13 Sudoeste 0 -- -- 63
2019-04-14 11:00:00 14.6 4 Sudoeste 14 Oeste 0 -- -- 75
2019-04-14 10:00:00 13.5 5 Sudoeste 14 Sudoeste 0 -- -- 88
2019-04-14 09:00:00 12.7 4 Sudoeste 10 Oeste 0 -- -- 89
2019-04-14 08:00:00 12.5 8 Oeste 14 Oeste 0 -- -- 89
2019-04-14 07:00:00 12.5 6 Sudoeste 16 Oeste 0 -- -- 89
2019-04-14 06:00:00 12.8 9 Sudoeste 15 Sudoeste 0 -- -- 87
2019-04-14 05:00:00 13.1 5 Sur 13 Sur 0 -- -- 85
2019-04-14 04:00:00 13.1 5 Sudoeste 12 Sudoeste 0 -- -- 84
2019-04-14 03:00:00 13.1 8 Sudoeste 14 Sudoeste 0 -- -- 83
2019-04-14 02:00:00 13.4 10 Sudoeste 18 Sudoeste 0 -- -- 78
2019-04-14 01:00:00 14.3 8 Sudoeste 14 Sudoeste 0 -- -- 68
2019-04-14 00:00:00 14.7 7 Sudoeste 15 Sudoeste 0 -- -- 59
2019-04-13 23:00:00 15.6 11 Sudoeste 19 Sudoeste 0 -- -- 44
2019-04-13 22:00:00 16.6 12 Sudoeste 19 Sudoeste 0 -- -- 39
2019-04-13 21:00:00 17.4 13 Sudoeste 31 Oeste 0 -- -- 34
2019-04-13 20:00:00 20.7 11 Sudoeste 24 Sudoeste 0 -- -- 30
2019-04-13 19:00:00 21.7 11 Sudoeste 25 Sudoeste 0 -- -- 28
2019-04-13 18:00:00 22.9 10 Oeste 19 Sudoeste 0 -- -- 28
2019-04-13 17:00:00 22.5 6 Sudoeste 21 Sudoeste 0 -- -- 27
2019-04-13 16:00:00 21.3 10 Sudoeste 22 Oeste 0 -- -- 30
2019-04-13 15:00:00 20.8 7 Sudoeste 18 Oeste 0 -- -- 31
2019-04-13 14:00:00 19.7 6 Oeste 19 Sudoeste 0 -- -- 33
2019-04-13 13:00:00 19.1 5 Sudoeste 15 Sudoeste 0 -- -- 34
2019-04-13 12:00:00 17.7 4 Oeste 9 Noroeste 0 -- -- 40
2019-04-13 11:00:00 16.3 0 Calma 8 Norte 0 -- -- 48
2019-04-13 10:00:00 12.7 2 Sur 8 Sur 0 -- -- 62
2019-04-13 09:00:00 10.4 3 Sur 6 Sudeste 0 -- -- 67
2019-04-13 08:00:00 8.8 3 Sudeste 5 Sudeste 0 -- -- 67
2019-04-13 07:00:00 9.5 0 Calma 6 Sur 0 -- -- 63
2019-04-13 06:00:00 8.7 3 Sur 7 Sur 0 -- -- 59
2019-04-13 05:00:00 9.2 4 Sudeste 6 Sudeste 0 -- -- 55
2019-04-13 04:00:00 10.9 3 Sur 9 Sudoeste 0 -- -- 49
2019-04-13 03:00:00 11.1 3 Sur 11 Sudoeste 0 -- -- 44
2019-04-13 02:00:00 11.5 7 Sudoeste 14 Sudoeste 0 -- -- 42
2019-04-13 01:00:00 11.8 4 Sudeste 9 Sudeste 0 -- -- 38
2019-04-13 00:00:00 12 4 Sur 9 Sur 0 -- -- 37
2019-04-12 23:00:00 12.9 4 Sur 8 Sur 0 -- -- 35
2019-04-12 22:00:00 14.4 4 Sudeste 6 Oeste 0 -- -- 32
2019-04-12 21:00:00 17.1 5 Sudoeste 13 Sudoeste 0 -- -- 26
2019-04-12 20:00:00 19.5 7 Oeste 15 Noroeste 0 -- -- 24
2019-04-12 19:00:00 19.8 8 Oeste 20 Oeste 0 -- -- 24
2019-04-12 18:00:00 19.7 6 Oeste 23 Oeste 0 -- -- 24
2019-04-12 17:00:00 19.2 8 Oeste 18 Oeste 0 -- -- 25
2019-04-12 16:00:00 18.6 10 Oeste 24 Oeste 0 -- -- 28
2019-04-12 15:00:00 17.7 6 Oeste 24 Sudoeste 0 -- -- 29
2019-04-12 14:00:00 17.1 9 Oeste 23 Oeste 0 -- -- 29
2019-04-12 13:00:00 16.2 7 Oeste 20 Oeste 0 -- -- 31
2019-04-12 12:00:00 14.9 9 Oeste 16 Oeste 0 -- -- 35
2019-04-12 11:00:00 13.4 2 Oeste 7 Noroeste 0 -- -- 44
2019-04-12 10:00:00 11.3 4 Oeste 5 Oeste 0 -- -- 51
2019-04-12 09:00:00 8.9 0 Calma 5 Sudeste 0 -- -- 60
2019-04-12 08:00:00 4.7 2 Sur 5 Sudeste 0 -- -- 69
2019-04-12 07:00:00 4.6 3 Sur 4 Sur 0 -- -- 68
2019-04-12 06:00:00 5.8 0 Calma 4 Sudeste 0 -- -- 63
2019-04-12 05:00:00 6 0 Calma 6 Sur 0 -- -- 63
2019-04-12 04:00:00 6.3 0 Calma 4 Sur 0 -- -- 61
2019-04-12 03:00:00 6.7 0 Calma 9 Sudeste 0 -- -- 56
2019-04-12 02:00:00 7.3 0 Calma 8 Sudeste 0 -- -- 52
2019-04-12 01:00:00 10.1 4 Nordeste 6 Norte 0 -- -- 41
2019-04-12 00:00:00 10.7 0 Calma 8 Oeste 0 -- -- 38
2019-04-11 23:00:00 12.1 4 Oeste 10 Noroeste 0 -- -- 34
2019-04-11 22:00:00 12.5 6 Noroeste 13 Oeste 0 -- -- 34
2019-04-11 21:00:00 14 8 Noroeste 15 Noroeste 0 -- -- 30
2019-04-11 20:00:00 17.6 10 Noroeste 21 Noroeste 0 -- -- 25
2019-04-11 19:00:00 18.2 13 Oeste 21 Oeste 0 -- -- 24
2019-04-11 18:00:00 17.2 10 Noroeste 21 Noroeste 0 -- -- 26
2019-04-11 17:00:00 17.3 8 Oeste 28 Oeste 0 -- -- 27
2019-04-11 16:00:00 17.6 14 Oeste 26 Oeste 0 -- -- 28
2019-04-11 15:00:00 16 9 Noroeste 24 Oeste 0 -- -- 32
2019-04-11 14:00:00 15.6 7 Oeste 24 Oeste 0 -- -- 35
2019-04-11 13:00:00 14.7 7 Oeste 17 Sudoeste 0 -- -- 41
2019-04-11 12:00:00 13.1 5 Oeste 11 Sudoeste 0 -- -- 49
2019-04-11 11:00:00 11.2 4 Oeste 8 Oeste 0 -- -- 63
2019-04-11 10:00:00 8.8 3 Sudoeste 6 Sudoeste 0 -- -- 74
2019-04-11 09:00:00 6.3 2 Sur 6 Sur 0 -- -- 84
2019-04-11 08:00:00 3.5 3 Sudeste 5 Sudoeste 0 -- -- 84
2019-04-11 07:00:00 4.2 3 Sur 5 Sur 0 -- -- 83
2019-04-11 06:00:00 4.5 3 Sur 5 Sur 0 -- -- 78
2019-04-11 05:00:00 5.3 3 Sudeste 6 Sudeste 0 -- -- 78
2019-04-11 04:00:00 6 0 Calma 10 Oeste 0 -- -- 74
2019-04-11 03:00:00 6 2 Oeste 7 Sudoeste 0 -- -- 70
2019-04-11 02:00:00 7.5 2 Nordeste 17 Oeste 0 -- -- 63
2019-04-11 01:00:00 8 8 Oeste 15 Noroeste 0 -- -- 61
2019-04-11 00:00:00 8.8 9 Noroeste 20 Oeste 0 -- -- 56
2019-04-10 23:00:00 10.2 14 Noroeste 30 Noroeste 0 -- -- 49
2019-04-10 22:00:00 11.1 12 Norte 28 Noroeste 0 -- -- 44
2019-04-10 21:00:00 13.1 12 Oeste 37 Oeste 0 -- -- 40
2019-04-10 20:00:00 15.2 17 Oeste 39 Oeste 0 -- -- 35
2019-04-10 19:00:00 15.2 22 Oeste 38 Oeste 0 -- -- 34
2019-04-10 18:00:00 15.3 26 Oeste 45 Oeste 0 -- -- 36
2019-04-10 17:00:00 15.5 26 Oeste 45 Oeste 0 -- -- 36
2019-04-10 16:00:00 15.9 23 Oeste 44 Oeste 0 -- -- 37
2019-04-10 15:00:00 15.4 26 Oeste 44 Oeste 0 -- -- 38
2019-04-10 14:00:00 13.9 22 Oeste 39 Oeste 0 -- -- 44
2019-04-10 13:00:00 13.1 23 Oeste 35 Oeste 0 -- -- 46
2019-04-10 12:00:00 12.4 21 Oeste 35 Oeste 0 -- -- 49
2019-04-10 11:00:00 10.8 18 Oeste 30 Oeste 0 -- -- 64
2019-04-10 10:00:00 8.2 17 Oeste 28 Sudoeste 0 -- -- 88
2019-04-10 09:00:00 6.6 11 Sudoeste 17 Oeste 0 -- -- 90
2019-04-10 08:00:00 6 12 Sudoeste 21 Sudoeste 0 -- -- 90
2019-04-10 07:00:00 5.6 10 Sudoeste 14 Sudoeste 0 -- -- 89
2019-04-10 06:00:00 5.7 8 Sudoeste 16 Sudoeste 0 -- -- 87
2019-04-10 05:00:00 6.4 7 Sudoeste 13 Sudoeste 0 -- -- 86
2019-04-10 04:00:00 6.5 7 Sudoeste 21 Sudoeste 0 -- -- 86
2019-04-10 03:00:00 6.4 12 Sudoeste 20 Sudoeste 0 -- -- 85
2019-04-10 02:00:00 6.7 12 Sudoeste 23 Sudoeste 0 -- -- 83
2019-04-10 01:00:00 7.3 17 Sudoeste 26 Sudoeste 0 -- -- 78
2019-04-10 00:00:00 8.2 19 Sudoeste 29 Oeste 0 -- -- 72
2019-04-09 23:00:00 9.1 14 Sudoeste 26 Sudoeste 0 -- -- 66
2019-04-09 22:00:00 9.9 19 Oeste 31 Oeste 0 -- -- 60
2019-04-09 21:00:00 11 21 Sudoeste 41 Sudoeste 0 -- -- 52
2019-04-09 20:00:00 13.3 28 Oeste 41 Oeste 0 -- -- 43
2019-04-09 19:00:00 14 23 Oeste 47 Sudoeste 0 -- -- 45
2019-04-09 18:00:00 13.9 21 Oeste 43 Oeste 0 -- -- 52
2019-04-09 17:00:00 14.6 19 Oeste 30 Oeste 0 -- -- 48
2019-04-09 16:00:00 12.3 20 Oeste 43 Sudoeste 0 -- -- 54
2019-04-09 15:00:00 13.4 29 Sudoeste 45 Sudoeste 0 -- -- 48
2019-04-09 14:00:00 12.4 28 Sudoeste 44 Sudoeste 0.1 -- -- 58
2019-04-09 13:00:00 10.5 17 Sudoeste 40 Sudoeste 0.8 -- -- 78
2019-04-09 12:00:00 10.8 22 Sudoeste 40 Oeste 0 -- -- 66
2019-04-09 11:00:00 9.5 15 Sudoeste 30 Sur 0 -- -- 82
2019-04-09 10:00:00 8.6 13 Sur 27 Sudoeste 0 -- -- 86
2019-04-09 09:00:00 7.6 10 Sur 27 Sur 0 -- -- 88
2019-04-09 08:00:00 7.2 8 Sur 21 Sur 0.1 -- -- 88
2019-04-09 07:00:00 6.9 6 Sur 15 Sur 0 -- -- 87
2019-04-09 06:00:00 7 7 Sur 19 Sur 0 -- -- 86
2019-04-09 05:00:00 7.2 10 Sur 21 Sudoeste 0 -- -- 84
2019-04-09 04:00:00 7.6 9 Sudoeste 19 Sudoeste 0 -- -- 81
2019-04-09 03:00:00 7.4 11 Sudoeste 21 Sudoeste 0 -- -- 78
2019-04-09 02:00:00 7.7 13 Sudoeste 22 Sudoeste 0 -- -- 77
2019-04-09 01:00:00 7.8 13 Sudoeste 19 Sudoeste 0 -- -- 75
2019-04-09 00:00:00 8.4 9 Sudoeste 21 Sudoeste 0 -- -- 73
2019-04-08 23:00:00 9.3 10 Sudoeste 20 Sudoeste 0 -- -- 73
2019-04-08 22:00:00 9.7 10 Sudoeste 22 Sudoeste 0 -- -- 76
2019-04-08 21:00:00 10.6 22 Sudoeste 37 Sudoeste 0.2 -- -- 65
2019-04-08 20:00:00 12.3 8 Sudoeste 43 Oeste 0 -- -- 51
2019-04-08 19:00:00 13.2 25 Oeste 41 Sudoeste 0 -- -- 42
2019-04-08 18:00:00 14.9 16 Sudoeste 36 Oeste 0 -- -- 33
2019-04-08 17:00:00 16.4 14 Sudoeste 30 Sudoeste 0 -- -- 34
2019-04-08 16:00:00 15.9 17 Oeste 30 Oeste 0 -- -- 35
2019-04-08 15:00:00 14.6 18 Sudoeste 31 Sudoeste 0 -- -- 36
2019-04-08 14:00:00 15.1 14 Sudoeste 28 Sudoeste 0 -- -- 36
2019-04-08 13:00:00 13.7 17 Sudoeste 34 Oeste 0 -- -- 47
2019-04-08 12:00:00 12.5 18 Sudoeste 29 Sudoeste 0 -- -- 66
2019-04-08 11:00:00 11.6 16 Sudoeste 27 Oeste 0 -- -- 78
2019-04-08 10:00:00 10.7 13 Sudoeste 24 Oeste 0 -- -- 88
2019-04-08 09:00:00 10.8 9 Sudoeste 17 Sudoeste 0 -- -- 89
2019-04-08 08:00:00 10.1 10 Sudoeste 21 Oeste 0.8 -- -- 88
2019-04-08 07:00:00 10.6 11 Sudoeste 24 Sur 4.1 -- -- 88
2019-04-08 06:00:00 10.7 9 Sur 23 Sur 0.4 -- -- 88
2019-04-08 05:00:00 10.3 8 Sur 22 Sur 0.8 -- -- 89
2019-04-08 04:00:00 10.7 7 Sur 22 Sur 1.3 -- -- 89
2019-04-08 03:00:00 10.9 9 Sur 22 Sur 0.3 -- -- 89
2019-04-08 02:00:00 10.9 6 Sur 19 Sudoeste 0.1 -- -- 89
2019-04-08 01:00:00 10.9 5 Sur 14 Sur 0.1 -- -- 89
2019-04-08 00:00:00 11 4 Sur 15 Sur 0 -- -- 89
2019-04-07 23:00:00 10.9 6 Sudoeste 21 Sur 0 -- -- 89
2019-04-07 22:00:00 11.1 5 Sur 15 Sur 0.3 -- -- 89
2019-04-07 21:00:00 10.8 4 Sur 19 Sur 0.9 -- -- 89
2019-04-07 20:00:00 10.8 6 Sur 22 Sur 0.6 -- -- 88
2019-04-07 19:00:00 10.6 13 Sur 27 Sudeste 0.2 -- -- 87
2019-04-07 18:00:00 10.5 12 Sudeste 27 Sudeste 0.1 -- -- 84
2019-04-07 17:00:00 11.4 10 Sur 26 Sur 0.1 -- -- 74
2019-04-07 16:00:00 12.1 9 Sur 26 Sudoeste 0 -- -- 55
2019-04-07 15:00:00 12.1 12 Sur 30 Sudoeste 0 -- -- 59
2019-04-07 14:00:00 12.2 13 Sudoeste 27 Sudoeste 0 -- -- 54
2019-04-07 13:00:00 11.1 13 Sudoeste 22 Sudoeste 0 -- -- 61
2019-04-07 12:00:00 10.3 12 Sudoeste 23 Sudoeste 0 -- -- 70
2019-04-07 11:00:00 8.9 14 Sudoeste 24 Oeste 0 -- -- 78
2019-04-07 10:00:00 8.2 9 Sudoeste 18 Sudoeste 0 -- -- 87
2019-04-07 09:00:00 6.9 7 Sudoeste 16 Sudoeste 0 -- -- 89
2019-04-07 08:00:00 6.8 12 Sudoeste 20 Sudoeste 0 -- -- 88
2019-04-07 07:00:00 6.7 14 Sudoeste 22 Sudoeste 0 -- -- 88
2019-04-07 06:00:00 6.6 12 Sudoeste 22 Sudoeste 0.1 -- -- 89
2019-04-07 05:00:00 6.7 13 Sudoeste 29 Sudoeste 0.1 -- -- 89
2019-04-07 04:00:00 6.8 17 Sudoeste 28 Sudoeste 0 -- -- 89
2019-04-07 03:00:00 6.7 14 Sudoeste 24 Sudoeste 0.6 -- -- 86
2019-04-07 02:00:00 6.8 9 Sudoeste 23 Sudoeste 0.2 -- -- 78
2019-04-07 01:00:00 6.9 11 Sudoeste 22 Sudoeste 0 -- -- 78
2019-04-07 00:00:00 6.7 8 Sudoeste 21 Sudoeste 0 -- -- 78
2019-04-06 23:00:00 6.5 14 Sudoeste 25 Sudoeste 0 -- -- 75
2019-04-06 22:00:00 6.7 17 Sudoeste 36 Sudoeste 0 -- -- 75
2019-04-06 21:00:00 7.9 23 Sudoeste 35 Sudoeste 0 -- -- 62
2019-04-06 20:00:00 8.8 21 Sudoeste 37 Sudoeste 0 -- -- 60
2019-04-06 19:00:00 9.5 21 Sudoeste 39 Sudoeste 0 -- -- 63
2019-04-06 18:00:00 7.8 21 Sudoeste 37 Sudoeste 0 -- -- 68
2019-04-06 17:00:00 6.8 18 Sudoeste 40 Sudoeste 0.1 -- -- 74
2019-04-06 16:00:00 7.1 32 Sudoeste 54 Sudoeste 0.1 -- -- 73
2019-04-06 15:00:00 7.6 19 Sudoeste 49 Sudoeste 0.8 -- -- 77
2019-04-06 14:00:00 8.3 12 Sudoeste 27 Oeste 1 -- -- 78
2019-04-06 13:00:00 7.5 21 Oeste 48 Sudoeste 0 -- -- 68
2019-04-06 12:00:00 8.1 24 Sudoeste 38 Sudoeste 0 -- -- 70
2019-04-06 11:00:00 7.2 15 Sudoeste 31 Sudoeste 0 -- -- 81
2019-04-06 10:00:00 5.9 19 Sudoeste 38 Sudoeste 0.9 -- -- 86
2019-04-06 09:00:00 5.9 9 Sur 19 Sur 0 -- -- 87
2019-04-06 08:00:00 5.8 6 Sur 17 Sur 0 -- -- 87
2019-04-06 07:00:00 5.6 7 Sur 22 Sudoeste 0 -- -- 87
2019-04-06 06:00:00 5.3 15 Sudoeste 28 Sudoeste 0 -- -- 87
2019-04-06 05:00:00 5.2 14 Sudoeste 23 Sudoeste 0 -- -- 87
2019-04-06 04:00:00 5 10 Sudoeste 20 Sudoeste 0 -- -- 86
2019-04-06 03:00:00 5.2 11 Sudoeste 22 Sudoeste 0 -- -- 83
2019-04-06 02:00:00 5.4 10 Sudoeste 26 Sudoeste 0 -- -- 78
2019-04-06 01:00:00 5.8 12 Sudoeste 21 Sudoeste 0 -- -- 75
2019-04-06 00:00:00 5.7 8 Sudoeste 23 Sudoeste 0 -- -- 74
2019-04-05 23:00:00 6 14 Sudoeste 32 Oeste 0 -- -- 72
2019-04-05 22:00:00 6.8 18 Sudoeste 27 Sudoeste 0 -- -- 69
2019-04-05 21:00:00 7.5 18 Sudoeste 38 Sudoeste 0 -- -- 65
2019-04-05 20:00:00 8 22 Sudoeste 35 Sudoeste 0 -- -- 63
2019-04-05 19:00:00 6.7 17 Oeste 42 Sudoeste 0.2 -- -- 69
2019-04-05 18:00:00 10.8 17 Sudoeste 37 Sudoeste 0 -- -- 41
2019-04-05 17:00:00 11.5 23 Sudoeste 40 Sudoeste 0 -- -- 39
2019-04-05 16:00:00 11.3 22 Sudoeste 39 Oeste 0 -- -- 42
2019-04-05 15:00:00 9.2 19 Sudoeste 37 Sudoeste 0 -- -- 54
2019-04-05 14:00:00 7.9 17 Sudoeste 37 Sudoeste 0 -- -- 60
2019-04-05 13:00:00 7.1 19 Sudoeste 31 Sudoeste 0 -- -- 76
2019-04-05 12:00:00 5.3 14 Sudoeste 33 Oeste 0.1 -- -- 87
2019-04-05 11:00:00 4 26 Sudoeste 51 Sudoeste 2.6 -- -- 87
2019-04-05 10:00:00 7.2 17 Sudoeste 27 Sudoeste 0 -- -- 85
2019-04-05 09:00:00 6.9 7 Sur 21 Sur 0 -- -- 89
2019-04-05 08:00:00 6.6 12 Sudeste 21 Sudeste 1.4 -- -- 90
2019-04-05 07:00:00 6.5 11 Sudeste 24 Sudeste 0.1 -- -- 90
2019-04-05 06:00:00 6.3 13 Sur 33 Sudeste 0.4 -- -- 90
2019-04-05 05:00:00 6.4 19 Sudeste 31 Sudeste 0.7 -- -- 90
2019-04-05 04:00:00 6.5 17 Sudeste 31 Sudeste 0.1 -- -- 87
2019-04-05 03:00:00 6.5 13 Sur 26 Sur 0.5 -- -- 88
2019-04-05 02:00:00 6.6 7 Sur 22 Sur 0.9 -- -- 87
2019-04-05 01:00:00 6.5 6 Sudoeste 16 Sudoeste 0.6 -- -- 87
2019-04-05 00:00:00 6.9 13 Oeste 26 Oeste 0.3 -- -- 78
2019-04-04 23:00:00 8.4 21 Oeste 30 Oeste 0 -- -- 54
2019-04-04 22:00:00 11.5 17 Sudoeste 32 Sudoeste 0 -- -- 37
2019-04-04 21:00:00 12.1 17 Sudoeste 28 Sudoeste 0 -- -- 32
2019-04-04 20:00:00 13.1 15 Sudoeste 32 Sudoeste 0 -- -- 26
2019-04-04 19:00:00 14.5 15 Sudoeste 30 Sudoeste 0 -- -- 26
2019-04-04 18:00:00 15.7 17 Sudoeste 30 Sudoeste 0 -- -- 25
2019-04-04 17:00:00 16.2 14 Sudoeste 27 Sudoeste 0 -- -- 28
2019-04-04 16:00:00 15.4 9 Sur 23 Sudoeste 0 -- -- 29
2019-04-04 15:00:00 14.5 8 Sur 21 Sur 0 -- -- 30
2019-04-04 14:00:00 13.4 6 Sudeste 20 Sur 0 -- -- 33
2019-04-04 13:00:00 13 5 Sudeste 19 Sudeste 0 -- -- 36
2019-04-04 12:00:00 11.7 0 Calma 8 Sudeste 0 -- -- 39
2019-04-04 11:00:00 9 3 Noroeste 7 Sudoeste 0 -- -- 44
2019-04-04 10:00:00 6.5 3 Sur -- -- -- -- -- 49
2019-04-04 09:00:00 4.1 0 Calma 4 Sudeste 0 -- -- 56
2019-04-04 08:00:00 1.7 0 Calma 6 Oeste 0 -- -- 56
2019-04-04 07:00:00 2.8 2 Sur 8 Oeste 0 -- -- 52
2019-04-04 06:00:00 3.3 4 Sudoeste 9 Sudoeste 0 -- -- 49
2019-04-04 05:00:00 4.3 2 Sur 10 Noroeste 0 -- -- 46
2019-04-04 04:00:00 5.6 9 Noroeste 24 Oeste 0 -- -- 43
2019-04-04 03:00:00 5.6 10 Oeste 20 Oeste 0 -- -- 43
2019-04-04 02:00:00 6.6 11 Oeste 27 Noroeste 0 -- -- 40
2019-04-04 01:00:00 8 17 Noroeste 33 Noroeste 0 -- -- 36
2019-04-04 00:00:00 8.6 16 Noroeste 33 Noroeste 0 -- -- 34
2019-04-03 23:00:00 9.9 17 Noroeste 31 Noroeste 0 -- -- 33
2019-04-03 22:00:00 10.2 16 Oeste 29 Oeste 0 -- -- 33
2019-04-03 21:00:00 11.4 23 Oeste 39 Oeste 0 -- -- 30
2019-04-03 20:00:00 13.2 23 Oeste 40 Oeste 0 -- -- 28
2019-04-03 19:00:00 14.7 25 Oeste 39 Oeste 0 -- -- 27
2019-04-03 18:00:00 15.7 23 Oeste 42 Oeste 0 -- -- 26
2019-04-03 17:00:00 16.3 22 Oeste 43 Sudoeste 0 -- -- 26
2019-04-03 16:00:00 15.5 25 Oeste 37 Oeste 0 -- -- 32
2019-04-03 15:00:00 15.6 22 Oeste 36 Oeste 0 -- -- 35
2019-04-03 14:00:00 14.8 17 Sudoeste 28 Sudoeste 0 -- -- 41
2019-04-03 13:00:00 12.9 11 Oeste 22 Sudoeste 0 -- -- 49
2019-04-03 12:00:00 11.7 5 Sudoeste 16 Oeste 0 -- -- 57
2019-04-03 11:00:00 9.3 9 Oeste 18 Sudoeste 0 -- -- 70
2019-04-03 10:00:00 8.2 5 Sudoeste 13 Sudoeste 0 -- -- 74
2019-04-03 09:00:00 6.9 3 Sur 9 Sur 0 -- -- 83
2019-04-03 08:00:00 -- 5 Sudeste -- -- -- -- -- --
2019-04-03 07:00:00 6.5 5 Sudeste 12 Sudeste 0 -- -- 82
2019-04-03 06:00:00 7.4 4 Sur 11 Sudeste 0 -- -- 78
2019-04-03 05:00:00 8 6 Sudeste 10 Sudeste 0 -- -- 73
2019-04-03 04:00:00 9.9 6 Sudeste 16 Sur 0 -- -- 67
2019-04-03 03:00:00 10 11 Sudoeste 19 Sudoeste 0 -- -- 66
2019-04-03 02:00:00 10.7 9 Sudoeste 17 Sudoeste 0 -- -- 62
2019-04-03 01:00:00 11.7 7 Sudoeste 17 Sudoeste 0 -- -- 58
2019-04-03 00:00:00 13 13 Sudoeste 18 Sudoeste 0 -- -- 55
2019-04-02 23:00:00 13.5 9 Sudoeste 17 Sudoeste 0 -- -- 50
2019-04-02 22:00:00 15.3 7 Sudoeste 14 Sudoeste 0 -- -- 41
2019-04-02 21:00:00 16.7 9 Sudoeste 18 Sudoeste 0 -- -- 36
2019-04-02 20:00:00 18.6 15 Sudoeste 28 Sudoeste 0 -- -- 33
2019-04-02 19:00:00 18.8 17 Sudoeste 28 Sudoeste 0 -- -- 32
2019-04-02 18:00:00 19.4 16 Sudoeste 28 Sudoeste 0 -- -- 31
2019-04-02 17:00:00 20 12 Sudoeste 33 Sudoeste 0 -- -- 33
2019-04-02 16:00:00 19.1 9 Sudoeste 27 Sudoeste 0 -- -- 37
2019-04-02 15:00:00 17.5 6 Sur 21 Sudoeste 0 -- -- 46
2019-04-02 14:00:00 17.2 9 Sur 22 Sur 0 -- -- 50
2019-04-02 13:00:00 16.1 6 Sur 17 Este 0 -- -- 58
2019-04-02 12:00:00 14.6 6 Sur 15 Sur 0 -- -- 63
2019-04-02 11:00:00 13 6 Sudoeste 14 Sur 0 -- -- 67
2019-04-02 10:00:00 11.6 4 Sur 10 Sur 0 -- -- 78
2019-04-02 09:00:00 8.7 2 Sur 8 Sudeste 0 -- -- 86
2019-04-02 08:00:00 7.8 4 Sudeste 8 Sudeste 0 -- -- 86
2019-04-02 07:00:00 7.1 4 Sudeste 6 Sudeste 0 -- -- 85
2019-04-02 06:00:00 7.8 0 Calma 4 Sudeste 0 -- -- 83
2019-04-02 05:00:00 8.7 4 Sudeste 7 Sudeste 0 -- -- 81
2019-04-02 04:00:00 9.8 4 Sudeste 12 Sur 0 -- -- 78
2019-04-02 03:00:00 10.5 5 Sur 12 Sur 0 -- -- 78
2019-04-02 02:00:00 11 4 Sudeste 8 Sur 0 -- -- 73
2019-04-02 01:00:00 11.8 4 Sur 9 Sur 0 -- -- 70
2019-04-02 00:00:00 12.2 0 Calma 7 Sur 0 -- -- 70
2019-04-01 23:00:00 12.7 3 Sudoeste 11 Sudoeste 0 -- -- 71
2019-04-01 22:00:00 12.9 4 Sur 9 Sur 0 -- -- 70
2019-04-01 21:00:00 13.3 4 Sur 12 Sudoeste 0 -- -- 65
2019-04-01 20:00:00 14.5 6 Sudeste 28 Sudeste 0 -- -- 64
2019-04-01 19:00:00 15.8 15 Sudeste 27 Sudeste 0 -- -- 48
2019-04-01 18:00:00 17.8 4 Nordeste 14 Este 0 -- -- 42
2019-04-01 17:00:00 16.6 6 Nordeste 16 Norte 0 -- -- 52
2019-04-01 16:00:00 14.8 4 Noroeste 9 Noroeste 0 -- -- 60
2019-04-01 15:00:00 12.6 6 Este 14 Este 0.6 -- -- 75
2019-04-01 14:00:00 11.2 8 Este 12 Este 2.6 -- -- 83
2019-04-01 13:00:00 10.8 3 Sur 17 Sudeste 1.1 -- -- 78
2019-04-01 12:00:00 11.6 9 Sudeste 17 Sur 0 -- -- 71
2019-04-01 11:00:00 12.9 3 Sudoeste 8 Sudoeste 0 -- -- 64
2019-04-01 10:00:00 11.1 0 Calma 4 Sudeste 0 -- -- 74
2019-04-01 09:00:00 9.3 2 Oeste 9 Norte 0 -- -- 76
2019-04-01 08:00:00 9.1 4 Nordeste 8 Nordeste 0 -- -- 74
2019-04-01 07:00:00 10.8 2 Sur 11 Sudeste 0 -- -- 71
2019-04-01 06:00:00 10.6 5 Sudeste 9 Sur 0 -- -- 71
2019-04-01 05:00:00 10.5 6 Este 9 Este 0 -- -- 74
2019-04-01 04:00:00 9.4 6 Nordeste 13 Nordeste 0 -- -- 75
2019-04-01 03:00:00 10 5 Nordeste 9 Nordeste 0 -- -- 74
2019-04-01 02:00:00 10.5 3 Nordeste 8 Noroeste 0 -- -- 73
2019-04-01 01:00:00 10.8 4 Noroeste 9 Oeste 0 -- -- 72
2019-04-01 00:00:00 11 3 Sudoeste 7 Noroeste 0 -- -- 67
2019-03-31 23:00:00 11.9 4 Este 12 Sudeste 0 -- -- 62
2019-03-31 22:00:00 12.4 5 Este 10 Este 0 -- -- 59
2019-03-31 21:00:00 13.7 6 Nordeste 17 Norte 0 -- -- 48
2019-03-31 20:00:00 16 8 Norte 25 Norte 0 -- -- 42
2019-03-31 19:00:00 17.9 6 Noroeste 16 Sudoeste 0 -- -- 43
2019-03-31 18:00:00 17.8 5 Este 13 Nordeste 0 -- -- 39
2019-03-31 17:00:00 17.6 0 Calma 22 Sudeste 0 -- -- 41
2019-03-31 16:00:00 16.8 17 Este 26 Este 0 -- -- 45
2019-03-31 15:00:00 18 5 Este 21 Norte 0 -- -- 37
2019-03-31 14:00:00 18 4 Nordeste 14 Noroeste 0 -- -- 40
2019-03-31 13:00:00 17.2 4 Noroeste 11 Noroeste 0 -- -- 43
2019-03-31 12:00:00 15.5 3 Noroeste 9 Norte 0 -- -- 49
2019-03-31 11:00:00 12.3 2 Nordeste 14 Norte 0 -- -- 59
2019-03-31 10:00:00 12 7 Nordeste 15 Nordeste 0 -- -- 63
2019-03-31 09:00:00 9.9 4 Nordeste 7 Nordeste 0 -- -- 78
2019-03-31 08:00:00 9.2 0 Calma 7 Oeste 0 -- -- 78
2019-03-31 07:00:00 11.1 0 Calma 9 Nordeste 0.1 -- -- 71
2019-03-31 06:00:00 10.9 6 Este 13 Noroeste 0 -- -- 63
2019-03-31 05:00:00 11.9 6 Sudeste 9 Sudeste 0 -- -- 59
2019-03-31 03:00:00 12.7 4 Norte 13 Nordeste 0 -- -- 54
2019-03-31 01:00:00 13.3 7 Nordeste 14 Sudeste 0 -- -- 52
2019-03-31 00:00:00 13.9 11 Sudeste 26 Sudeste 0 -- -- 47
2019-03-30 23:00:00 14.7 4 Sudeste 23 Este 0 -- -- 38
2019-03-30 22:00:00 12.7 6 Nordeste 13 Nordeste 0 -- -- 40
2019-03-30 21:00:00 13.1 5 Nordeste 10 Nordeste 0 -- -- 39
2019-03-30 20:00:00 16.2 5 Norte 18 Norte 0 -- -- 34
2019-03-30 19:00:00 19.5 8 Norte 20 Norte 0 -- -- 30
2019-03-30 18:00:00 20.7 9 Norte 22 Norte 0 -- -- 29
2019-03-30 17:00:00 20.6 12 Norte 24 Norte 0 -- -- 29
2019-03-30 16:00:00 20.1 10 Nordeste 24 Norte 0 -- -- 30
2019-03-30 15:00:00 20.2 6 Nordeste 24 Nordeste 0 -- -- 31
2019-03-30 14:00:00 19.5 12 Nordeste 32 Norte 0 -- -- 33
2019-03-30 13:00:00 18.5 10 Norte 21 Norte 0 -- -- 35
2019-03-30 12:00:00 16.9 8 Norte 17 Norte 0 -- -- 38
2019-03-30 11:00:00 14.8 12 Nordeste 20 Nordeste 0 -- -- 41
2019-03-30 10:00:00 12.7 9 Nordeste 22 Nordeste 0 -- -- 45
2019-03-30 09:00:00 10.5 9 Nordeste 18 Nordeste 0 -- -- 47
2019-03-30 08:00:00 6.8 9 Nordeste 16 Nordeste 0 -- -- 48
2019-03-30 07:00:00 7.8 4 Este 15 Sudeste 0 -- -- 43
2019-03-30 06:00:00 8.9 5 Sudeste 13 Sudeste 0 -- -- 41
2019-03-30 05:00:00 7.2 2 Sur 6 Sudeste 0 -- -- 42
2019-03-30 04:00:00 6.8 2 Sur 9 Sur 0 -- -- 41
2019-03-30 03:00:00 8.2 0 Calma 7 Sudeste 0 -- -- 38
2019-03-30 02:00:00 8.3 0 Calma 4 Sudeste 0 -- -- 38
2019-03-30 01:00:00 10.7 0 Calma 9 Nordeste 0 -- -- 32
2019-03-30 00:00:00 11.8 5 Nordeste 10 Nordeste 0 -- -- 32
2019-03-29 23:00:00 12 8 Nordeste 13 Nordeste 0 -- -- 33
2019-03-29 22:00:00 10.8 9 Nordeste 14 Nordeste 0 -- -- 33
2019-03-29 21:00:00 12.8 0 Calma 5 Sudeste 0 -- -- 30
2019-03-29 20:00:00 15.7 0 Calma 9 Sudeste 0 -- -- 26
2019-03-29 19:00:00 18.5 5 Sur 17 Sudeste 0 -- -- 24
2019-03-29 18:00:00 19.2 8 Sudeste 24 Sudeste 0 -- -- 24
2019-03-29 17:00:00 19.1 11 Sudeste 23 Sudeste 0 -- -- 24
2019-03-29 16:00:00 19.2 2 Nordeste 15 Sudeste 0 -- -- 26
2019-03-29 15:00:00 18.4 4 Noroeste 20 Noroeste 0 -- -- 27
2019-03-29 14:00:00 18.3 7 Norte 19 Norte 0 -- -- 27
2019-03-29 13:00:00 17.6 6 Este 26 Este 0 -- -- 26
2019-03-29 12:00:00 16.7 6 Sudeste 24 Sudeste 0 -- -- 26
2019-03-29 11:00:00 15.8 11 Este 22 Este 0 -- -- 30
2019-03-29 10:00:00 15.4 3 Nordeste 9 Este 0 -- -- 33
2019-03-29 09:00:00 13.3 7 Este 13 Este 0 -- -- 35
2019-03-29 08:00:00 7.8 0 Calma 6 Nordeste 0 -- -- 44
2019-03-29 07:00:00 7.1 5 Nordeste 7 Nordeste 0 -- -- 41
2019-03-29 06:00:00 7.3 0 Calma 5 Oeste 0 -- -- 39
2019-03-29 05:00:00 9.5 2 Norte 19 Sudeste 0 -- -- 34
2019-03-29 04:00:00 12 13 Sudeste 30 Sudeste 0 -- -- 31
2019-03-29 03:00:00 12.1 15 Sudeste 21 Sudeste 0 -- -- 31
2019-03-29 02:00:00 12.8 13 Este 22 Este 0 -- -- 31
2019-03-29 01:00:00 12 0 Calma 12 Este 0 -- -- 30
2019-03-29 00:00:00 13 6 Este 15 Este 0 -- -- 29
2019-03-28 23:00:00 12.9 6 Este 14 Este 0 -- -- 28
2019-03-28 22:00:00 13.5 11 Nordeste 15 Este 0 -- -- 27
2019-03-28 21:00:00 14.2 8 Este 15 Nordeste 0 -- -- 27
2019-03-28 20:00:00 14.9 7 Nordeste 19 Nordeste 0 -- -- 26
2019-03-28 19:00:00 18.8 9 Nordeste 27 Norte 0 -- -- 23
2019-03-28 18:00:00 20.6 8 Norte 21 Nordeste 0 -- -- 22
2019-03-28 17:00:00 21 9 Norte 23 Este 0 -- -- 21
2019-03-28 16:00:00 20.7 9 Este 26 Este 0 -- -- 21
2019-03-28 15:00:00 20.5 12 Este 32 Este 0 -- -- 21
2019-03-28 14:00:00 19.7 11 Nordeste 31 Este 0 -- -- 22
2019-03-28 13:00:00 18.7 18 Este 31 Este 0 -- -- 22
2019-03-28 12:00:00 18.6 10 Este 25 Este 0 -- -- 23
2019-03-28 11:00:00 17.2 5 Nordeste 14 Norte 0 -- -- 30
2019-03-28 10:00:00 15.4 3 Sudoeste 9 Sur 0 -- -- 33
2019-03-28 09:00:00 11.6 0 Calma 7 Nordeste 0 -- -- 38
2019-03-28 08:00:00 8.8 4 Nordeste 10 Nordeste 0 -- -- 39
2019-03-28 07:00:00 8.6 9 Nordeste 13 Este 0 -- -- 35
2019-03-28 06:00:00 10.4 10 Este 14 Este 0 -- -- 35
2019-03-28 05:00:00 10.5 8 Este 13 Este 0 -- -- 34
2019-03-28 04:00:00 9.5 4 Este 11 Este 0 -- -- 32
2019-03-28 03:00:00 11.9 8 Este 13 Nordeste 0 -- -- 30
2019-03-28 02:00:00 13 11 Este 15 Este 0 -- -- 30
2019-03-28 01:00:00 12.7 8 Nordeste 12 Nordeste 0 -- -- 31
2019-03-28 00:00:00 12.4 9 Este 11 Este 0 -- -- 33
2019-03-27 23:00:00 10.8 5 Este 10 Este 0 -- -- 36
2019-03-27 22:00:00 11.8 5 Nordeste 10 Nordeste 0 -- -- 34
2019-03-27 21:00:00 12.9 6 Nordeste 13 Nordeste 0 -- -- 33
2019-03-27 20:00:00 15 5 Nordeste 14 Nordeste 0 -- -- 30
2019-03-27 19:00:00 18.4 8 Nordeste 23 Norte 0 -- -- 27
2019-03-27 18:00:00 19.5 11 Nordeste 22 Norte 0 -- -- 28
2019-03-27 17:00:00 20 8 Nordeste 23 Norte 0 -- -- 28
2019-03-27 16:00:00 19.6 9 Norte 27 Norte 0 -- -- 30
2019-03-27 15:00:00 18.7 10 Norte 25 Norte 0 -- -- 30
2019-03-27 14:00:00 18.2 7 Nordeste 23 Nordeste 0 -- -- 31
2019-03-27 13:00:00 17 13 Nordeste 45 Nordeste 0 -- -- 31
2019-03-27 12:00:00 16.3 11 Nordeste 27 Nordeste 0 -- -- 34
2019-03-27 11:00:00 14.8 14 Nordeste 29 Nordeste 0 -- -- 39
2019-03-27 10:00:00 12.4 16 Nordeste 33 Nordeste 0 -- -- 45
2019-03-27 09:00:00 10.2 18 Nordeste 34 Nordeste 0 -- -- 53
2019-03-27 08:00:00 6.9 12 Nordeste 28 Nordeste 0 -- -- 59
2019-03-27 07:00:00 6.6 14 Nordeste 25 Nordeste 0 -- -- 53
2019-03-27 06:00:00 7.2 10 Nordeste 23 Norte 0 -- -- 47
2019-03-27 05:00:00 8.6 7 Nordeste 17 Nordeste 0 -- -- 42
2019-03-27 04:00:00 10 2 Nordeste 13 Norte 0 -- -- 37
2019-03-27 03:00:00 12.5 6 Noroeste 23 Sudeste 0 -- -- 32
2019-03-27 02:00:00 13.5 3 Nordeste 20 Este 0 -- -- 31
2019-03-27 01:00:00 14.8 13 Este 22 Este 0 -- -- 32
2019-03-27 00:00:00 15.7 15 Este 28 Este 0 -- -- 32